Time;durP1;ratioP1;P1;durP2;ratioP2;P2;SDS_P1;SDS_P2;PMS_P1;PMS_P2;Temp;Humidity;BMP_temperature;BMP_pressure;BME280_temperature;BME280_humidity;BME280_pressure;Samples;Min_cycle;Max_cycle;Signal;HPM_P1;HPM_P2
2023/04/21 00:00:56;;;;;;;11.20;2.60;;;;;;;11.01;56.02;100104.93;108261;1255;72809;-92
2023/04/21 00:03:26;;;;;;;7.60;3.10;;;;;;;11.01;55.92;100110.39;108329;1254;72661;-88
2023/04/21 00:05:57;;;;;;;13.10;3.20;;;;;;;11.01;55.87;100108.71;108311;1254;61855;-93
2023/04/21 00:08:26;;;;;;;11.10;2.50;;;;;;;11.02;55.91;100112.11;108426;1254;61341;-93
2023/04/21 00:11:03;;;;;;;13.10;2.80;;;;;;;11.03;55.84;100109.21;108520;1254;73174;-94
2023/04/21 00:13:35;;;;;;;20.30;3.50;;;;;;;11.06;55.82;100105.46;108429;1254;72451;-88
2023/04/21 00:16:07;;;;;;;11.80;2.90;;;;;;;11.08;55.81;100097.91;108367;1254;73589;-92
2023/04/21 00:18:42;;;;;;;9.50;3.40;;;;;;;11.12;55.69;100094.60;108410;1254;61707;-91
2023/04/21 00:21:17;;;;;;;9.30;2.90;;;;;;;11.15;55.69;100093.52;108215;1254;60382;-87
2023/04/21 00:23:46;;;;;;;8.60;2.50;;;;;;;11.17;55.59;100095.43;108254;1254;73859;-93
2023/04/21 00:26:17;;;;;;;8.90;2.30;;;;;;;11.17;55.44;100095.70;108302;1254;72664;-95
2023/04/21 00:28:45;;;;;;;10.70;2.50;;;;;;;11.19;55.46;100093.73;108418;1253;74124;-93
2023/04/21 00:31:14;;;;;;;7.30;2.70;;;;;;;11.21;55.36;100096.27;108348;1254;61026;-93
2023/04/21 00:33:42;;;;;;;12.20;3.00;;;;;;;11.21;55.30;100095.58;109103;1254;60325;-91
2023/04/21 00:36:11;;;;;;;12.30;3.30;;;;;;;11.23;55.36;100095.84;109512;1254;73825;-81
2023/04/21 00:38:41;;;;;;;12.10;3.30;;;;;;;11.13;55.44;100091.59;109499;1256;72496;-81
2023/04/21 00:41:11;;;;;;;11.60;3.40;;;;;;;10.96;55.78;100093.34;109434;1255;71411;-87
2023/04/21 00:44:05;;;;;;;13.40;2.90;;;;;;;10.92;56.05;100099.67;109459;1254;61773;-83
2023/04/21 00:46:34;;;;;;;10.80;2.70;;;;;;;11.09;55.76;100091.72;109477;1255;60121;-79
2023/04/21 00:49:22;;;;;;;10.40;2.60;;;;;;;11.04;55.87;100091.36;109504;1254;75057;-88
2023/04/21 00:52:06;;;;;;;9.40;2.60;;;;;;;11.09;55.93;100091.66;109239;1254;71812;-96
2023/04/21 00:54:36;;;;;;;10.40;3.30;;;;;;;10.97;56.09;100093.30;108870;1254;70370;-96
2023/04/21 00:57:06;;;;;;;9.80;2.60;;;;;;;11.03;56.12;100088.77;108820;1254;59418;-94
2023/04/21 00:59:38;;;;;;;14.30;3.00;;;;;;;11.16;55.76;100089.41;108579;1254;61305;-96
2023/04/21 01:02:09;;;;;;;12.60;3.40;;;;;;;11.17;55.68;100085.22;108560;1254;74044;-96
2023/04/21 01:04:39;;;;;;;13.20;2.20;;;;;;;11.17;55.65;100086.61;108384;1258;72834;-91
2023/04/21 01:07:08;;;;;;;11.60;2.40;;;;;;;11.16;55.79;100087.31;108122;1256;72395;-91
2023/04/21 01:09:40;;;;;;;15.20;3.00;;;;;;;11.15;55.78;100087.47;108519;1255;63248;-94
2023/04/21 01:12:16;;;;;;;11.10;2.60;;;;;;;11.13;55.87;100087.45;108285;1256;60308;-94
2023/04/21 01:14:46;;;;;;;10.70;2.30;;;;;;;11.13;55.84;100085.14;108145;1254;74662;-92
2023/04/21 01:17:17;;;;;;;9.90;2.70;;;;;;;11.14;55.86;100085.18;108257;1254;74136;-93
2023/04/21 01:19:49;;;;;;;12.90;3.00;;;;;;;11.16;55.86;100085.06;108459;1256;71377;-96
2023/04/21 01:22:17;;;;;;;15.30;2.90;;;;;;;11.16;55.72;100083.09;108065;1255;62368;-93
2023/04/21 01:24:48;;;;;;;12.90;3.20;;;;;;;11.18;55.68;100085.91;108072;1256;60274;-95
2023/04/21 01:27:18;;;;;;;8.60;2.50;;;;;;;11.18;55.52;100083.61;108051;1256;74566;-96
2023/04/21 01:29:49;;;;;;;9.00;2.40;;;;;;;11.20;55.62;100081.36;107915;1258;73513;-94
2023/04/21 01:32:29;;;;;;;12.40;3.70;;;;;;;11.19;55.82;100077.95;108091;1257;72465;-93
2023/04/21 01:35:02;;;;;;;12.10;3.30;;;;;;;11.20;55.70;100079.23;108205;1256;61344;-93
2023/04/21 01:37:35;;;;;;;11.50;3.00;;;;;;;11.21;55.91;100079.76;108082;1256;59851;-94
2023/04/21 01:40:09;;;;;;;14.30;3.30;;;;;;;11.23;55.90;100078.25;108004;1257;72870;-95
2023/04/21 01:42:40;;;;;;;9.60;2.80;;;;;;;11.23;55.76;100077.34;108094;1257;71892;-92
2023/04/21 01:45:30;;;;;;;17.30;3.00;;;;;;;11.23;55.76;100079.11;108537;1259;71370;-95
2023/04/21 01:48:03;;;;;;;9.40;2.90;;;;;;;11.22;55.84;100078.21;108051;1256;62434;-95
2023/04/21 01:50:41;;;;;;;16.30;3.20;;;;;;;11.23;55.80;100081.61;108299;1254;60392;-94
2023/04/21 01:53:14;;;;;;;13.00;2.60;;;;;;;11.24;55.84;100075.31;108344;1254;73851;-94
2023/04/21 01:55:43;;;;;;;14.70;3.00;;;;;;;11.24;55.86;100070.66;108095;1256;71474;-93
2023/04/21 01:58:11;;;;;;;9.50;2.20;;;;;;;11.24;55.81;100069.42;108709;1255;72003;-93
2023/04/21 02:00:40;;;;;;;9.70;2.80;;;;;;;11.23;55.78;100068.63;109060;1254;60145;-95
2023/04/21 02:03:08;;;;;;;11.30;2.70;;;;;;;11.23;55.87;100066.55;109237;1255;59774;-90
2023/04/21 02:05:39;;;;;;;11.10;2.60;;;;;;;11.23;55.88;100064.31;109378;1254;72924;-84
2023/04/21 02:08:08;;;;;;;9.90;2.90;;;;;;;11.07;56.20;100056.85;109469;1254;70704;-81
2023/04/21 02:10:37;;;;;;;10.40;2.70;;;;;;;10.95;56.32;100054.39;109523;1258;72642;-79
2023/04/21 02:13:05;;;;;;;10.60;2.60;;;;;;;10.94;56.53;100052.15;109397;1254;61500;-87
2023/04/21 02:15:36;;;;;;;9.80;2.80;;;;;;;11.16;56.00;100048.66;108866;1257;60430;-92
2023/04/21 02:18:07;;;;;;;9.90;2.60;;;;;;;11.23;55.71;100042.75;108656;1257;74812;-93
2023/04/21 02:20:37;;;;;;;9.20;3.20;;;;;;;11.25;55.54;100043.01;108343;1254;72863;-94
2023/04/21 02:23:27;;;;;;;11.90;3.20;;;;;;;11.25;55.43;100039.70;108167;1255;70913;-95
2023/04/21 02:25:58;;;;;;;11.70;3.00;;;;;;;11.24;55.38;100040.34;108312;1254;63251;-93
2023/04/21 02:28:34;;;;;;;11.40;2.90;;;;;;;11.23;55.26;100039.76;108061;1258;61580;-93
2023/04/21 02:31:04;;;;;;;9.40;3.00;;;;;;;11.23;55.10;100041.48;108462;1256;75019;-94
2023/04/21 02:33:34;;;;;;;8.70;3.20;;;;;;;11.21;55.18;100037.52;108397;1256;71458;-94
2023/04/21 02:36:03;;;;;;;10.70;3.20;;;;;;;11.21;55.20;100032.27;108205;1256;72977;-94
2023/04/21 02:38:41;;;;;;;9.90;2.80;;;;;;;11.20;55.08;100028.92;108201;1256;60456;-91
2023/04/21 02:41:10;;;;;;;11.20;2.80;;;;;;;10.93;55.58;100031.58;108057;1255;60879;-96
2023/04/21 02:43:40;;;;;;;12.80;3.20;;;;;;;10.90;55.65;100028.33;108430;1255;73796;-95
2023/04/21 02:46:12;;;;;;;11.30;2.80;;;;;;;10.93;55.60;100025.33;108354;1258;73736;-94
2023/04/21 02:48:48;;;;;;;10.00;2.90;;;;;;;10.95;55.53;100026.06;107966;1255;71456;-92
2023/04/21 02:51:18;;;;;;;;;;;;;;;10.96;55.56;100031.68;108047;1257;63121;-94
2023/04/21 02:53:46;;;;;;;10.80;3.20;;;;;;;10.96;55.60;100033.33;108086;1256;61278;-93
2023/04/21 02:56:16;;;;;;;10.60;3.70;;;;;;;11.03;55.51;100031.33;108022;1256;73799;-94
2023/04/21 02:58:45;;;;;;;8.90;3.40;;;;;;;11.27;55.03;100026.05;108121;1256;71364;-93
2023/04/21 03:01:15;;;;;;;8.90;3.10;;;;;;;11.34;54.83;100028.75;108277;1255;72615;-93
2023/04/21 03:04:03;;;;;;;9.70;3.00;;;;;;;11.39;54.89;100026.11;108528;1256;61910;-93
2023/04/21 03:07:02;;;;;;;10.60;3.00;;;;;;;11.40;54.90;100024.55;108398;1256;60224;-94
2023/04/21 03:10:00;;;;;;;12.00;3.00;;;;;;;11.41;55.01;100020.92;108451;1255;74566;-93
2023/04/21 03:13:09;;;;;;;14.10;3.30;;;;;;;11.38;55.04;100021.56;107848;1257;822287;-92
2023/04/21 03:16:08;;;;;;;9.20;3.50;;;;;;;11.35;55.22;100026.29;108437;1256;71424;-94
2023/04/21 03:19:35;;;;;;;12.50;3.20;;;;;;;11.32;55.25;100025.45;108822;1256;62819;-91
2023/04/21 03:22:54;;;;;;;12.60;4.30;;;;;;;11.18;55.74;100023.69;108946;1259;59897;-94
2023/04/21 03:25:26;;;;;;;14.40;3.60;;;;;;;11.14;55.86;100025.52;108786;1259;72598;-95
2023/04/21 03:27:57;;;;;;;9.40;3.20;;;;;;;11.14;56.04;100027.45;108691;1259;72253;-93
2023/04/21 03:31:46;;;;;;;12.40;3.90;;;;;;;11.13;56.19;100029.38;108786;1259;73321;-95
2023/04/21 03:36:01;;;;;;;12.40;3.50;;;;;;;11.14;56.27;100036.64;108707;1259;59173;-96
2023/04/21 03:39:13;;;;;;;14.60;3.90;;;;;;;11.09;56.38;100031.09;109054;1259;60237;-82
2023/04/21 03:43:17;;;;;;;14.00;3.50;;;;;;;11.10;56.44;100028.31;108947;1264;73556;-85
2023/04/21 03:46:57;;;;;;;13.80;4.30;;;;;;;11.19;56.09;100030.48;108768;1261;71460;-95
2023/04/21 03:50:19;;;;;;;10.50;3.40;;;;;;;11.18;56.12;100026.67;108924;1254;71386;-94
2023/04/21 03:54:21;;;;;;;11.30;4.00;;;;;;;11.07;56.39;100022.02;109017;1254;60823;-94
2023/04/21 03:58:10;;;;;;;10.60;3.80;;;;;;;11.06;56.36;100020.11;108810;1257;61350;-95
2023/04/21 04:02:18;;;;;;;16.10;4.60;;;;;;;11.19;56.30;100014.65;108566;1260;73659;-94
2023/04/21 04:08:43;;;;;;;10.10;4.90;;;;;;;11.24;56.32;100012.76;108970;1254;71147;-94
2023/04/21 04:11:47;;;;;;;13.50;5.70;;;;;;;11.26;56.36;100008.96;108355;1260;61858;-94
2023/04/21 04:14:16;;;;;;;16.70;5.20;;;;;;;11.19;56.52;100012.77;107925;1260;60162;-94
2023/04/21 04:16:47;;;;;;;15.20;5.40;;;;;;;11.15;56.55;100015.36;107682;1261;73795;-94
2023/04/21 04:19:19;;;;;;;12.00;3.90;;;;;;;11.15;56.55;100018.35;108106;1260;71582;-95
2023/04/21 04:21:54;;;;;;;14.30;4.20;;;;;;;11.14;56.60;100014.83;108030;1260;71469;-94
2023/04/21 04:25:15;;;;;;;16.40;4.10;;;;;;;11.15;56.57;100014.28;108296;1260;61001;-95
2023/04/21 04:28:52;;;;;;;15.00;4.10;;;;;;;11.18;56.53;100013.05;108220;1260;61295;-95
2023/04/21 04:31:24;;;;;;;13.20;4.20;;;;;;;11.20;56.50;100014.48;108732;1260;73583;-94
2023/04/21 04:33:57;;;;;;;14.00;3.80;;;;;;;11.25;56.53;100011.69;108621;1260;72563;-96
2023/04/21 04:36:28;;;;;;;16.00;4.70;;;;;;;11.32;56.50;100014.38;108727;1260;71130;-94
2023/04/21 04:38:58;;;;;;;14.20;3.90;;;;;;;11.45;56.17;100014.95;108649;1260;62967;-95
2023/04/21 04:42:41;;;;;;;18.90;4.40;;;;;;;11.55;55.95;100017.26;108241;1267;60389;-94
2023/04/21 04:45:12;;;;;;;14.20;4.40;;;;;;;11.61;55.89;100021.39;107896;1267;73904;-94
2023/04/21 04:47:42;;;;;;;10.90;3.80;;;;;;;11.67;55.81;100021.89;107963;1267;72726;-96
2023/04/21 04:51:23;;;;;;;22.50;4.70;;;;;;;11.76;55.62;100025.36;108116;1270;71259;-92
2023/04/21 04:54:15;;;;;;;11.00;4.10;;;;;;;11.80;55.34;100025.17;107869;1271;61062;-87
2023/04/21 04:57:20;;;;;;;14.40;3.60;;;;;;;11.78;55.08;100022.04;108178;1265;60216;-92
2023/04/21 05:00:25;;;;;;;13.70;3.90;;;;;;;11.79;54.96;100026.73;108289;1265;73805;-94
2023/04/21 05:04:08;;;;;;;12.80;4.00;;;;;;;11.84;54.94;100030.36;108205;1264;71770;-94
2023/04/21 05:07:06;;;;;;;13.30;4.70;;;;;;;11.88;54.84;100034.25;108393;1256;72718;-95
2023/04/21 05:10:03;;;;;;;11.90;3.70;;;;;;;11.89;54.57;100039.48;108732;1256;59243;-94
2023/04/21 05:12:45;;;;;;;17.00;4.40;;;;;;;11.89;54.34;100039.17;109338;1255;60082;-82
2023/04/21 05:16:04;;;;;;;15.50;3.80;;;;;;;11.91;54.27;100038.52;109401;1255;73891;-85
2023/04/21 05:18:36;;;;;;;12.00;3.90;;;;;;;11.97;54.22;100042.16;109406;1256;72484;-95
2023/04/21 05:21:06;;;;;;;10.50;2.90;;;;;;;12.04;53.98;100046.39;108999;1255;72725;-94
2023/04/21 05:23:41;;;;;;;11.90;3.30;;;;;;;12.09;53.87;100043.30;109023;1254;60352;-89
2023/04/21 05:27:04;;;;;;;14.40;3.60;;;;;;;12.16;53.67;100044.81;108943;1255;60368;-95
2023/04/21 05:29:33;;;;;;;12.60;3.90;;;;;;;12.22;53.28;100044.34;108961;1254;73208;-94
2023/04/21 05:32:11;;;;;;;15.50;3.80;;;;;;;12.28;53.18;100039.52;109042;1256;72394;-95
2023/04/21 05:34:44;;;;;;;11.60;3.80;;;;;;;12.36;53.00;100039.78;109198;1254;72120;-96
2023/04/21 05:37:15;;;;;;;14.90;3.60;;;;;;;12.46;52.92;100040.17;109246;1254;60560;-95
2023/04/21 05:40:59;;;;;;;12.70;3.10;;;;;;;12.60;52.30;100040.20;109448;1256;59052;-95
2023/04/21 05:43:28;;;;;;;10.10;3.30;;;;;;;12.64;52.00;100039.13;109079;1254;72350;-95
2023/04/21 05:47:20;;;;;;;14.30;3.70;;;;;;;12.73;51.62;100038.78;108628;1257;71299;-96
2023/04/21 05:50:05;;;;;;;12.00;3.70;;;;;;;12.82;51.54;100036.13;108937;1257;71065;-95
2023/04/21 05:56:52;;;;;;;10.60;3.20;;;;;;;12.96;50.81;100037.52;109086;1254;58843;-94
2023/04/21 06:00:22;;;;;;;10.10;3.00;;;;;;;13.08;50.69;100033.10;109004;1254;72256;-93
2023/04/21 06:03:13;;;;;;;14.40;3.30;;;;;;;13.17;50.04;100029.84;109001;1254;72795;-96
2023/04/21 06:06:43;;;;;;;15.20;3.00;;;;;;;13.20;49.84;100032.67;109071;1259;72148;-92
2023/04/21 06:09:14;;;;;;;12.20;3.20;;;;;;;13.23;49.44;100035.39;109050;1258;61542;-87
2023/04/21 06:12:10;;;;;;;12.40;3.10;;;;;;;13.25;49.17;100032.76;109089;1258;61473;-90
2023/04/21 06:14:39;;;;;;;9.90;2.90;;;;;;;13.37;48.72;100032.67;108824;1259;73825;-94
2023/04/21 06:17:08;;;;;;;10.10;2.90;;;;;;;13.37;48.45;100033.45;108764;1258;70619;-95
2023/04/21 06:19:38;;;;;;;6.90;2.60;;;;;;;13.46;48.31;100030.30;108869;1259;73377;-95
2023/04/21 06:22:17;;;;;;;12.20;3.40;;;;;;;13.59;47.75;100033.92;108414;1259;60458;-94
2023/04/21 06:25:09;;;;;;;10.30;3.70;;;;;;;13.60;47.35;100032.52;108810;1259;59058;-95
2023/04/21 06:27:48;;;;;;;12.20;3.20;;;;;;;13.58;47.07;100031.95;108283;1260;74873;-92
2023/04/21 06:30:32;;;;;;;12.10;2.90;;;;;;;13.66;46.84;100036.35;108173;1260;71237;-96
2023/04/21 06:33:05;;;;;;;10.90;3.10;;;;;;;13.73;46.58;100034.38;108338;1260;73801;-94
2023/04/21 06:35:36;;;;;;;10.60;3.10;;;;;;;13.75;46.44;100036.44;108255;1260;60321;-93
2023/04/21 06:38:06;;;;;;;11.80;3.50;;;;;;;13.78;46.23;100033.88;108728;1256;60393;-93
2023/04/21 06:41:25;;;;;;;9.70;2.80;;;;;;;13.87;46.27;100036.07;108854;1258;73547;-82
2023/04/21 06:45:16;;;;;;;17.20;3.50;;;;;;;13.88;46.44;100029.92;109211;1259;71825;-83
2023/04/21 06:48:17;;;;;;;9.80;2.70;;;;;;;13.94;45.97;100028.80;109144;1259;73491;-91
2023/04/21 06:52:28;;;;;;;9.30;3.00;;;;;;;14.11;46.49;100035.02;108848;1263;58205;-96
2023/04/21 06:54:56;;;;;;;10.30;3.50;;;;;;;14.37;46.74;100034.35;108456;1263;59407;-95
2023/04/21 06:57:25;;;;;;;16.60;3.70;;;;;;;14.46;46.88;100032.96;108351;1263;72553;-94
2023/04/21 06:59:54;;;;;;;11.00;2.70;;;;;;;14.46;46.71;100035.06;108554;1263;72835;-94
2023/04/21 07:02:28;;;;;;;11.10;3.20;;;;;;;14.51;45.60;100036.23;108436;1263;71684;-95
2023/04/21 07:05:24;;;;;;;15.20;3.00;;;;;;;14.57;45.13;100036.79;108954;1254;60235;-95
2023/04/21 07:07:58;;;;;;;14.00;3.60;;;;;;;14.62;44.84;100034.39;108669;1256;60434;-95
2023/04/21 07:10:51;;;;;;;14.80;3.00;;;;;;;14.66;44.04;100031.34;108445;1256;73869;-94
2023/04/21 07:13:21;;;;;;;15.30;3.00;;;;;;;14.66;43.50;100032.89;108278;1257;70846;-93
2023/04/21 07:15:51;;;;;;;12.40;3.00;;;;;;;14.72;43.63;100031.87;108559;1257;73371;-93
2023/04/21 07:18:23;;;;;;;11.10;3.20;;;;;;;14.75;43.74;100034.08;108389;1257;60445;-95
2023/04/21 07:21:00;;;;;;;15.20;3.20;;;;;;;14.83;43.59;100030.77;108219;1258;61144;-93
2023/04/21 07:23:34;;;;;;;10.80;2.70;;;;;;;14.93;43.58;100032.84;108824;1256;72608;-91
2023/04/21 07:26:02;;;;;;;9.80;2.90;;;;;;;15.06;43.65;100033.75;109033;1257;72675;-93
2023/04/21 07:28:42;;;;;;;10.30;3.00;;;;;;;15.13;43.40;100033.90;108781;1257;72801;-95
2023/04/21 07:31:18;;;;;;;11.60;2.90;;;;;;;15.23;43.27;100035.02;108938;1256;59460;-90
2023/04/21 07:34:09;;;;;;;8.60;2.70;;;;;;;15.21;43.23;100037.88;108471;1257;60559;-88
2023/04/21 07:36:40;;;;;;;10.00;2.50;;;;;;;15.12;43.44;100042.77;108234;1257;73736;-90
2023/04/21 07:39:08;;;;;;;8.50;2.80;;;;;;;15.07;43.62;100048.11;108349;1257;72702;-94
2023/04/21 07:41:37;;;;;;;10.80;2.90;;;;;;;15.04;43.62;100049.02;108044;1257;72590;-88
2023/04/21 07:44:09;;;;;;;12.10;3.00;;;;;;;14.98;43.48;100049.73;108345;1257;60288;-90
2023/04/21 07:46:40;;;;;;;12.60;2.60;;;;;;;14.95;43.49;100045.81;109214;1256;60959;-83
2023/04/21 07:49:08;;;;;;;11.50;2.60;;;;;;;14.95;43.47;100042.80;109325;1257;73453;-88
2023/04/21 07:51:56;;;;;;;9.30;2.60;;;;;;;15.04;43.37;100042.73;109188;1256;75285;-81
2023/04/21 07:54:26;;;;;;;9.10;3.00;;;;;;;15.09;43.19;100040.52;109011;1257;72653;-89
2023/04/21 07:57:18;;;;;;;10.50;2.90;;;;;;;15.14;43.38;100037.36;108812;1257;59200;-89
2023/04/21 07:59:48;;;;;;;13.50;2.90;;;;;;;15.15;43.10;100035.61;109076;1256;61212;-81
2023/04/21 08:03:08;;;;;;;13.50;3.30;;;;;;;15.23;43.45;100035.99;109381;1257;73879;-82
2023/04/21 08:07:05;;;;;;;14.50;4.00;;;;;;;15.55;43.37;100037.57;108553;1262;71454;-93
2023/04/21 08:10:31;;;;;;;13.20;3.40;;;;;;;15.68;42.67;100043.52;108325;1262;71436;-93
2023/04/21 08:13:02;;;;;;;10.10;2.70;;;;;;;15.74;42.38;100041.90;108297;1262;60866;-93
2023/04/21 08:15:35;;;;;;;7.60;2.40;;;;;;;15.71;42.55;100049.83;108824;1262;60312;-91
2023/04/21 08:19:05;;;;;;;12.00;3.50;;;;;;;15.63;42.44;100044.90;108767;1262;74338;-90
2023/04/21 08:21:51;;;;;;;10.10;3.20;;;;;;;15.59;42.85;100054.41;108709;1260;71830;-95
2023/04/21 08:24:20;;;;;;;11.50;3.60;;;;;;;15.56;42.87;100053.08;108411;1260;72314;-92
2023/04/21 08:26:50;;;;;;;9.60;2.50;;;;;;;15.50;42.85;100056.66;107792;1263;60302;-90
2023/04/21 08:29:19;;;;;;;8.20;2.40;;;;;;;15.33;43.50;100052.86;107875;1260;60394;-93
2023/04/21 08:31:49;;;;;;;8.40;2.30;;;;;;;15.20;43.86;100059.31;107901;1260;72686;-95
2023/04/21 08:34:18;;;;;;;9.70;2.40;;;;;;;15.18;43.78;100056.77;107812;1260;70931;-94
2023/04/21 08:36:50;;;;;;;11.80;2.70;;;;;;;15.10;43.84;100062.84;108160;1260;73944;-93
2023/04/21 08:39:30;;;;;;;10.40;2.90;;;;;;;15.07;44.30;100067.73;108150;1257;61565;-93
2023/04/21 08:42:21;;;;;;;9.40;2.50;;;;;;;15.08;44.60;100070.79;108039;1257;60841;-90
2023/04/21 08:44:49;;;;;;;9.60;2.20;;;;;;;14.97;44.74;100071.75;107889;1257;74610;-93
2023/04/21 08:47:23;;;;;;;6.50;2.70;;;;;;;14.82;45.72;100071.91;107948;1257;72907;-93
2023/04/21 08:49:54;;;;;;;8.20;2.50;;;;;;;14.87;46.51;100075.22;108050;1257;72621;-89
2023/04/21 08:52:23;;;;;;;10.70;2.40;;;;;;;14.91;46.80;100072.13;107949;1257;60422;-92
2023/04/21 08:54:54;;;;;;;8.60;2.20;;;;;;;14.93;46.87;100072.74;107940;1258;61571;-90
2023/04/21 08:57:23;;;;;;;7.20;2.00;;;;;;;14.93;46.91;100075.36;108090;1257;74849;-91
2023/04/21 08:59:55;;;;;;;7.50;2.10;;;;;;;14.91;47.13;100073.21;108248;1257;72839;-94
2023/04/21 09:02:59;;;;;;;11.00;2.70;;;;;;;14.93;47.36;100074.45;108368;1257;73469;-94
2023/04/21 09:05:33;;;;;;;7.10;2.10;;;;;;;14.98;47.52;100077.96;108378;1262;60377;-92
2023/04/21 09:08:31;;;;;;;6.30;2.20;;;;;;;15.25;47.07;100079.22;108318;1258;59854;-93
2023/04/21 09:11:02;;;;;;;10.20;2.30;;;;;;;15.32;47.23;100080.96;108512;1257;72169;-93
2023/04/21 09:13:34;;;;;;;7.40;2.20;;;;;;;15.24;47.45;100083.98;108361;1257;72772;-93
2023/04/21 09:16:04;;;;;;;7.10;1.90;;;;;;;15.27;47.49;100085.21;107921;1257;72611;-92
2023/04/21 09:18:38;;;;;;;7.90;2.50;;;;;;;15.04;47.74;100087.64;108157;1257;61412;-91
2023/04/21 09:21:11;;;;;;;;;;;;;;;15.01;47.66;100086.73;108734;1257;59782;-86
2023/04/21 09:23:50;;;;;;;6.40;1.80;;;;;;;15.06;47.90;100089.92;109086;1257;73534;-89
2023/04/21 09:26:21;;;;;;;6.80;1.80;;;;;;;15.15;47.34;100089.16;108980;1257;72401;-83
2023/04/21 09:28:56;;;;;;;9.40;1.60;;;;;;;15.16;47.01;100090.70;109026;1257;72225;-90
2023/04/21 09:31:29;;;;;;;5.80;1.70;;;;;;;15.16;47.08;100094.84;109050;1257;60027;-87
2023/04/21 09:33:58;;;;;;;;;;;;;;;15.15;47.08;100098.09;108784;1257;59613;-89
2023/04/21 09:36:30;;;;;;;6.20;1.40;;;;;;;15.05;46.73;100094.02;109120;1257;72276;-91
2023/04/21 09:39:03;;;;;;;5.00;1.30;;;;;;;15.04;46.89;100099.52;109085;1257;72861;-90
2023/04/21 09:41:36;;;;;;;3.70;1.30;;;;;;;15.26;46.52;100095.83;109006;1258;71096;-83
2023/04/21 09:44:08;;;;;;;5.10;1.70;;;;;;;15.32;46.37;100091.08;109092;1257;59223;-86
2023/04/21 09:46:49;;;;;;;4.10;1.50;;;;;;;15.40;46.38;100090.76;109081;1257;60461;-86
2023/04/21 09:49:23;;;;;;;5.40;1.30;;;;;;;15.50;45.83;100082.50;108987;1257;73585;-89
2023/04/21 09:51:52;;;;;;;7.20;1.90;;;;;;;15.45;45.50;100083.77;108874;1258;72842;-93
2023/04/21 09:54:51;;;;;;;5.90;1.90;;;;;;;15.38;46.01;100080.90;108336;1258;71882;-91
2023/04/21 09:57:21;;;;;;;6.60;1.70;;;;;;;15.22;45.93;100083.58;108008;1258;60571;-91
2023/04/21 10:00:01;;;;;;;4.90;1.80;;;;;;;15.01;46.27;100084.20;107980;1258;61298;-89
2023/04/21 10:02:32;;;;;;;6.30;2.00;;;;;;;14.88;46.61;100094.77;108062;1257;74813;-91
2023/04/21 10:05:00;;;;;;;6.90;2.20;;;;;;;14.66;47.27;100093.98;107933;1258;73105;-92
2023/04/21 10:07:32;;;;;;;6.80;2.10;;;;;;;14.55;47.95;100105.94;107990;1258;74040;-93
2023/04/21 10:10:01;;;;;;;8.30;1.90;;;;;;;14.50;49.09;100112.23;107893;1258;59681;-90
2023/04/21 10:12:30;;;;;;;7.00;2.20;;;;;;;14.35;49.64;100118.42;107881;1258;61528;-91
2023/04/21 10:15:03;;;;;;;8.50;2.20;;;;;;;14.18;50.43;100123.62;107823;1258;73863;-91
2023/04/21 10:17:37;;;;;;;8.40;2.30;;;;;;;14.06;51.20;100118.86;107925;1257;72974;-89
2023/04/21 10:20:08;;;;;;;6.80;2.10;;;;;;;13.98;51.85;100121.64;107722;1263;72669;-90
2023/04/21 10:22:38;;;;;;;8.60;2.60;;;;;;;13.95;52.07;100122.33;107904;1258;61276;-90
2023/04/21 10:25:08;;;;;;;7.80;2.30;;;;;;;13.98;52.16;100120.95;107964;1261;59941;-92
2023/04/21 10:27:42;;;;;;;7.60;2.10;;;;;;;14.11;52.17;100119.27;107941;1257;73346;-92
2023/04/21 10:30:22;;;;;;;7.00;2.00;;;;;;;14.26;51.60;100118.24;107939;1257;72862;-90
2023/04/21 10:33:04;;;;;;;8.70;2.50;;;;;;;14.45;51.00;100119.24;108096;1257;72480;-93
2023/04/21 10:35:57;;;;;;;9.30;2.70;;;;;;;14.60;50.08;100110.91;107947;1258;60500;-92
2023/04/21 10:38:34;;;;;;;7.40;2.20;;;;;;;14.68;49.66;100116.40;108280;1261;61063;-89
2023/04/21 10:41:30;;;;;;;9.10;2.30;;;;;;;14.74;48.84;100103.67;108437;1257;73415;-95
2023/04/21 10:44:20;;;;;;;11.00;2.60;;;;;;;14.84;48.57;100099.89;108260;1257;73144;-94
2023/04/21 10:47:07;;;;;;;9.70;2.90;;;;;;;14.90;48.52;100100.38;108430;1260;71069;-94
2023/04/21 10:49:39;;;;;;;10.00;2.80;;;;;;;15.01;48.47;100101.31;108068;1257;60394;-87
2023/04/21 10:52:11;;;;;;;7.80;2.10;;;;;;;15.13;47.48;100106.67;108001;1258;60829;-90
2023/04/21 10:54:46;;;;;;;10.40;2.50;;;;;;;15.13;46.93;100095.48;108030;1257;74947;-90
2023/04/21 10:57:18;;;;;;;8.70;2.70;;;;;;;15.07;46.36;100104.48;108001;1260;72985;-94
2023/04/21 10:59:47;;;;;;;8.50;3.10;;;;;;;15.04;46.69;100104.00;107955;1258;73462;-93
2023/04/21 11:02:17;;;;;;;6.30;2.60;;;;;;;15.02;46.88;100110.49;108458;1257;60685;-93
2023/04/21 11:04:49;;;;;;;11.80;2.40;;;;;;;14.98;46.74;100111.85;107941;1257;61371;-90
2023/04/21 11:07:22;;;;;;;10.70;3.50;;;;;;;14.87;46.89;100123.40;108128;1257;73865;-89
2023/04/21 11:09:59;;;;;;;7.90;2.30;;;;;;;14.72;47.89;100122.75;108003;1258;73980;-91
2023/04/21 11:12:32;;;;;;;10.20;2.50;;;;;;;14.49;49.55;100129.92;107923;1258;72937;-90
2023/04/21 11:15:09;;;;;;;8.00;2.40;;;;;;;14.36;50.53;100123.61;108588;1257;61819;-87
2023/04/21 11:17:41;;;;;;;9.30;2.40;;;;;;;14.28;50.69;100114.60;108888;1258;60296;-89
2023/04/21 11:20:14;;;;;;;13.10;2.60;;;;;;;14.28;50.38;100106.05;109133;1257;73674;-89
2023/04/21 11:22:44;;;;;;;14.40;2.90;;;;;;;14.32;50.87;100092.23;108353;1261;72466;-93
2023/04/21 11:25:17;;;;;;;10.60;2.90;;;;;;;14.43;50.38;100078.80;107889;1257;72599;-90
2023/04/21 11:27:55;;;;;;;11.30;2.50;;;;;;;14.56;50.14;100074.63;107973;1258;60356;-92
2023/04/21 11:30:33;;;;;;;9.20;2.50;;;;;;;14.69;48.97;100079.67;107861;1259;60174;-92
2023/04/21 11:33:03;;;;;;;8.50;2.40;;;;;;;14.82;48.46;100082.34;108079;1258;72768;-94
2023/04/21 11:35:57;;;;;;;12.80;3.00;;;;;;;14.97;48.01;100089.88;108121;1259;72897;-93
2023/04/21 11:38:53;;;;;;;9.30;2.90;;;;;;;15.15;47.79;100090.98;108082;1257;72598;-92
2023/04/21 11:41:45;;;;;;;7.90;2.80;;;;;;;15.26;47.11;100091.48;108163;1257;60492;-92
2023/04/21 11:44:38;;;;;;;14.60;3.30;;;;;;;15.31;46.88;100089.83;107896;1257;60403;-88
2023/04/21 11:47:26;;;;;;;11.30;3.20;;;;;;;15.25;46.20;100082.29;108099;1257;74905;-92
2023/04/21 11:50:00;;;;;;;11.10;3.90;;;;;;;15.25;45.99;100082.29;107930;1258;73886;-92
2023/04/21 11:52:34;;;;;;;15.00;3.20;;;;;;;15.23;45.61;100075.60;108062;1257;72560;-92
2023/04/21 11:55:11;;;;;;;12.30;2.60;;;;;;;15.26;45.40;100076.25;107991;1259;61583;-90
2023/04/21 11:57:41;;;;;;;13.70;3.10;;;;;;;15.27;45.10;100076.55;108046;1259;60449;-88
2023/04/21 12:00:10;;;;;;;8.10;2.60;;;;;;;15.31;45.23;100066.56;108020;1258;73086;-90
2023/04/21 12:02:39;;;;;;;9.70;2.90;;;;;;;15.46;45.28;100071.80;108011;1263;72994;-89
2023/04/21 12:05:12;;;;;;;9.90;2.90;;;;;;;15.57;44.22;100061.92;107849;1261;73911;-91
2023/04/21 12:07:44;;;;;;;11.30;2.80;;;;;;;15.71;44.06;100062.63;107930;1257;60425;-92
2023/04/21 12:10:17;;;;;;;8.20;2.50;;;;;;;15.88;43.96;100051.42;107976;1257;60330;-90
2023/04/21 12:12:46;;;;;;;9.00;2.80;;;;;;;16.04;43.74;100049.01;108056;1258;72994;-93
2023/04/21 12:15:19;;;;;;;10.90;3.30;;;;;;;16.23;43.68;100042.74;107897;1259;72712;-91
2023/04/21 12:17:52;;;;;;;11.40;2.50;;;;;;;16.43;43.35;100039.70;107993;1258;72630;-93
2023/04/21 12:20:23;;;;;;;11.60;2.40;;;;;;;16.62;43.07;100041.96;107925;1259;59974;-91
2023/04/21 12:22:53;;;;;;;12.90;3.00;;;;;;;16.78;42.80;100036.66;108091;1259;60552;-92
2023/04/21 12:25:24;;;;;;;12.60;2.80;;;;;;;16.94;42.79;100036.61;108132;1257;73578;-94
2023/04/21 12:28:15;;;;;;;13.10;2.80;;;;;;;17.10;42.69;100035.41;108088;1259;72491;-93